sensor_id;sensor_type;location;lat;lon;timestamp;P1;durP1;ratioP1;P2;durP2;ratioP2
38901;SDS011;24661;53.566;9.910;2023-05-19T00:01:46;4.97;;;3.23;;
38901;SDS011;24661;53.566;9.910;2023-05-19T00:04:12;6.73;;;3.83;;
38901;SDS011;24661;53.566;9.910;2023-05-19T00:06:39;7.30;;;3.27;;
38901;SDS011;24661;53.566;9.910;2023-05-19T00:09:06;6.30;;;3.27;;
38901;SDS011;24661;53.566;9.910;2023-05-19T00:11:33;9.50;;;3.10;;
38901;SDS011;24661;53.566;9.910;2023-05-19T00:14:01;11.23;;;3.77;;
38901;SDS011;24661;53.566;9.910;2023-05-19T00:16:27;7.07;;;3.20;;
38901;SDS011;24661;53.566;9.910;2023-05-19T00:18:55;8.17;;;4.10;;
38901;SDS011;24661;53.566;9.910;2023-05-19T00:21:22;8.83;;;3.27;;
38901;SDS011;24661;53.566;9.910;2023-05-19T00:23:47;12.93;;;3.90;;
38901;SDS011;24661;53.566;9.910;2023-05-19T00:26:13;7.23;;;3.40;;
38901;SDS011;24661;53.566;9.910;2023-05-19T00:28:39;8.13;;;3.87;;
38901;SDS011;24661;53.566;9.910;2023-05-19T00:31:05;13.43;;;4.57;;
38901;SDS011;24661;53.566;9.910;2023-05-19T00:33:30;15.70;;;5.10;;
38901;SDS011;24661;53.566;9.910;2023-05-19T00:35:57;11.57;;;3.43;;
38901;SDS011;24661;53.566;9.910;2023-05-19T00:38:30;8.67;;;3.80;;
38901;SDS011;24661;53.566;9.910;2023-05-19T00:40:57;12.47;;;4.27;;
38901;SDS011;24661;53.566;9.910;2023-05-19T00:43:24;8.00;;;3.70;;
38901;SDS011;24661;53.566;9.910;2023-05-19T00:45:50;9.60;;;3.53;;
38901;SDS011;24661;53.566;9.910;2023-05-19T00:48:16;5.67;;;3.03;;
38901;SDS011;24661;53.566;9.910;2023-05-19T00:50:42;7.73;;;3.27;;
38901;SDS011;24661;53.566;9.910;2023-05-19T00:53:08;15.23;;;4.20;;
38901;SDS011;24661;53.566;9.910;2023-05-19T00:55:34;10.20;;;4.17;;
38901;SDS011;24661;53.566;9.910;2023-05-19T00:58:02;10.13;;;3.27;;
38901;SDS011;24661;53.566;9.910;2023-05-19T01:00:29;11.77;;;4.30;;
38901;SDS011;24661;53.566;9.910;2023-05-19T01:02:55;9.43;;;3.40;;
38901;SDS011;24661;53.566;9.910;2023-05-19T01:05:21;8.90;;;4.40;;
38901;SDS011;24661;53.566;9.910;2023-05-19T01:07:46;8.37;;;3.37;;
38901;SDS011;24661;53.566;9.910;2023-05-19T01:10:17;11.97;;;4.07;;
38901;SDS011;24661;53.566;9.910;2023-05-19T01:12:46;11.17;;;4.20;;
38901;SDS011;24661;53.566;9.910;2023-05-19T01:15:12;7.83;;;3.40;;
38901;SDS011;24661;53.566;9.910;2023-05-19T01:17:41;10.10;;;3.90;;
38901;SDS011;24661;53.566;9.910;2023-05-19T01:20:44;15.60;;;3.83;;
38901;SDS011;24661;53.566;9.910;2023-05-19T01:32:08;13.27;;;4.13;;
38901;SDS011;24661;53.566;9.910;2023-05-19T01:34:34;5.70;;;3.07;;
38901;SDS011;24661;53.566;9.910;2023-05-19T01:37:06;13.67;;;3.93;;
38901;SDS011;24661;53.566;9.910;2023-05-19T01:39:33;11.93;;;4.23;;
38901;SDS011;24661;53.566;9.910;2023-05-19T01:42:00;8.47;;;4.30;;
38901;SDS011;24661;53.566;9.910;2023-05-19T01:44:26;8.80;;;3.67;;
38901;SDS011;24661;53.566;9.910;2023-05-19T01:46:52;11.13;;;3.77;;
38901;SDS011;24661;53.566;9.910;2023-05-19T01:49:19;8.10;;;3.20;;
38901;SDS011;24661;53.566;9.910;2023-05-19T01:51:44;10.17;;;3.40;;
38901;SDS011;24661;53.566;9.910;2023-05-19T01:54:10;12.73;;;4.20;;
38901;SDS011;24661;53.566;9.910;2023-05-19T01:57:23;8.50;;;3.57;;
38901;SDS011;24661;53.566;9.910;2023-05-19T02:02:15;6.00;;;4.03;;
38901;SDS011;24661;53.566;9.910;2023-05-19T02:05:04;10.33;;;3.93;;
38901;SDS011;24661;53.566;9.910;2023-05-19T02:07:41;9.73;;;3.57;;
38901;SDS011;24661;53.566;9.910;2023-05-19T02:10:13;5.77;;;3.13;;
38901;SDS011;24661;53.566;9.910;2023-05-19T02:12:46;7.13;;;3.20;;
38901;SDS011;24661;53.566;9.910;2023-05-19T02:15:16;17.50;;;3.87;;
38901;SDS011;24661;53.566;9.910;2023-05-19T02:17:48;11.70;;;4.87;;
38901;SDS011;24661;53.566;9.910;2023-05-19T02:20:16;11.10;;;3.80;;
38901;SDS011;24661;53.566;9.910;2023-05-19T02:22:42;12.53;;;4.27;;
38901;SDS011;24661;53.566;9.910;2023-05-19T02:25:08;11.33;;;3.90;;
38901;SDS011;24661;53.566;9.910;2023-05-19T02:27:35;13.40;;;4.23;;
38901;SDS011;24661;53.566;9.910;2023-05-19T02:30:02;9.47;;;4.97;;
38901;SDS011;24661;53.566;9.910;2023-05-19T02:32:28;11.63;;;3.63;;
38901;SDS011;24661;53.566;9.910;2023-05-19T02:34:54;6.83;;;3.40;;
38901;SDS011;24661;53.566;9.910;2023-05-19T02:37:20;13.03;;;4.17;;
38901;SDS011;24661;53.566;9.910;2023-05-19T02:39:47;14.07;;;5.73;;
38901;SDS011;24661;53.566;9.910;2023-05-19T02:42:13;8.03;;;3.93;;
38901;SDS011;24661;53.566;9.910;2023-05-19T02:44:41;11.33;;;3.73;;
38901;SDS011;24661;53.566;9.910;2023-05-19T02:47:07;9.60;;;3.87;;
38901;SDS011;24661;53.566;9.910;2023-05-19T02:49:32;10.40;;;3.70;;
38901;SDS011;24661;53.566;9.910;2023-05-19T02:52:01;6.70;;;3.10;;
38901;SDS011;24661;53.566;9.910;2023-05-19T02:54:30;11.90;;;4.03;;
38901;SDS011;24661;53.566;9.910;2023-05-19T02:56:57;16.70;;;4.03;;
38901;SDS011;24661;53.566;9.910;2023-05-19T02:59:23;8.70;;;3.53;;
38901;SDS011;24661;53.566;9.910;2023-05-19T03:01:49;11.97;;;3.93;;
38901;SDS011;24661;53.566;9.910;2023-05-19T03:04:17;9.37;;;3.27;;
38901;SDS011;24661;53.566;9.910;2023-05-19T03:06:44;7.57;;;3.30;;
38901;SDS011;24661;53.566;9.910;2023-05-19T03:09:10;12.40;;;3.37;;
38901;SDS011;24661;53.566;9.910;2023-05-19T03:11:39;12.63;;;4.03;;
38901;SDS011;24661;53.566;9.910;2023-05-19T03:14:05;10.90;;;3.30;;
38901;SDS011;24661;53.566;9.910;2023-05-19T03:16:33;8.30;;;3.23;;
38901;SDS011;24661;53.566;9.910;2023-05-19T03:18:59;5.00;;;3.00;;
38901;SDS011;24661;53.566;9.910;2023-05-19T03:21:24;9.40;;;3.77;;
38901;SDS011;24661;53.566;9.910;2023-05-19T03:23:50;8.67;;;3.47;;
38901;SDS011;24661;53.566;9.910;2023-05-19T03:26:15;12.67;;;3.93;;
38901;SDS011;24661;53.566;9.910;2023-05-19T03:28:41;12.97;;;3.57;;
38901;SDS011;24661;53.566;9.910;2023-05-19T03:31:06;7.73;;;3.30;;
38901;SDS011;24661;53.566;9.910;2023-05-19T03:33:32;10.43;;;4.83;;
38901;SDS011;24661;53.566;9.910;2023-05-19T03:35:57;8.87;;;3.77;;
38901;SDS011;24661;53.566;9.910;2023-05-19T03:38:23;14.33;;;3.87;;
38901;SDS011;24661;53.566;9.910;2023-05-19T03:40:49;14.63;;;3.70;;
38901;SDS011;24661;53.566;9.910;2023-05-19T03:43:15;7.90;;;3.53;;
38901;SDS011;24661;53.566;9.910;2023-05-19T03:45:40;10.50;;;3.50;;
38901;SDS011;24661;53.566;9.910;2023-05-19T03:48:06;9.23;;;3.33;;
38901;SDS011;24661;53.566;9.910;2023-05-19T03:50:32;11.60;;;3.40;;
38901;SDS011;24661;53.566;9.910;2023-05-19T03:52:58;7.13;;;3.13;;
38901;SDS011;24661;53.566;9.910;2023-05-19T03:55:24;8.17;;;3.67;;
38901;SDS011;24661;53.566;9.910;2023-05-19T03:57:50;17.47;;;3.70;;
38901;SDS011;24661;53.566;9.910;2023-05-19T04:00:16;8.87;;;3.60;;
38901;SDS011;24661;53.566;9.910;2023-05-19T04:02:42;11.33;;;3.80;;
38901;SDS011;24661;53.566;9.910;2023-05-19T04:05:08;7.53;;;3.37;;
38901;SDS011;24661;53.566;9.910;2023-05-19T04:07:34;17.67;;;5.53;;
38901;SDS011;24661;53.566;9.910;2023-05-19T04:10:02;9.30;;;4.10;;
38901;SDS011;24661;53.566;9.910;2023-05-19T04:12:31;10.70;;;3.60;;
38901;SDS011;24661;53.566;9.910;2023-05-19T04:14:57;8.40;;;4.47;;
38901;SDS011;24661;53.566;9.910;2023-05-19T04:17:22;9.87;;;4.47;;
38901;SDS011;24661;53.566;9.910;2023-05-19T04:19:50;10.03;;;4.23;;
38901;SDS011;24661;53.566;9.910;2023-05-19T04:22:16;10.20;;;4.27;;
38901;SDS011;24661;53.566;9.910;2023-05-19T04:24:41;7.50;;;3.70;;
38901;SDS011;24661;53.566;9.910;2023-05-19T04:27:07;11.03;;;4.07;;
38901;SDS011;24661;53.566;9.910;2023-05-19T04:29:36;9.07;;;3.97;;
38901;SDS011;24661;53.566;9.910;2023-05-19T04:32:03;13.00;;;4.50;;
38901;SDS011;24661;53.566;9.910;2023-05-19T04:34:32;9.40;;;4.83;;
38901;SDS011;24661;53.566;9.910;2023-05-19T04:37:04;8.77;;;4.13;;
38901;SDS011;24661;53.566;9.910;2023-05-19T04:39:31;11.60;;;3.90;;
38901;SDS011;24661;53.566;9.910;2023-05-19T04:41:56;11.10;;;4.80;;
38901;SDS011;24661;53.566;9.910;2023-05-19T04:44:22;15.83;;;4.67;;
38901;SDS011;24661;53.566;9.910;2023-05-19T04:46:47;12.53;;;3.90;;
38901;SDS011;24661;53.566;9.910;2023-05-19T04:49:13;10.33;;;3.87;;
38901;SDS011;24661;53.566;9.910;2023-05-19T04:51:39;8.13;;;4.10;;
38901;SDS011;24661;53.566;9.910;2023-05-19T04:54:08;11.27;;;4.23;;
38901;SDS011;24661;53.566;9.910;2023-05-19T04:56:34;8.13;;;3.37;;
38901;SDS011;24661;53.566;9.910;2023-05-19T04:59:00;13.13;;;5.03;;
38901;SDS011;24661;53.566;9.910;2023-05-19T05:01:26;7.80;;;3.93;;
38901;SDS011;24661;53.566;9.910;2023-05-19T05:03:51;12.73;;;4.33;;
38901;SDS011;24661;53.566;9.910;2023-05-19T05:06:23;9.53;;;3.70;;
38901;SDS011;24661;53.566;9.910;2023-05-19T05:08:49;10.83;;;3.30;;
38901;SDS011;24661;53.566;9.910;2023-05-19T05:11:16;12.73;;;3.90;;
38901;SDS011;24661;53.566;9.910;2023-05-19T05:13:41;10.07;;;4.30;;
38901;SDS011;24661;53.566;9.910;2023-05-19T05:16:07;10.80;;;3.97;;
38901;SDS011;24661;53.566;9.910;2023-05-19T05:18:34;12.50;;;4.33;;
38901;SDS011;24661;53.566;9.910;2023-05-19T05:21:00;8.27;;;3.80;;
38901;SDS011;24661;53.566;9.910;2023-05-19T05:23:26;11.60;;;4.23;;
38901;SDS011;24661;53.566;9.910;2023-05-19T05:25:52;11.40;;;3.77;;
38901;SDS011;24661;53.566;9.910;2023-05-19T05:28:18;9.20;;;3.83;;
38901;SDS011;24661;53.566;9.910;2023-05-19T05:30:44;11.50;;;3.67;;
38901;SDS011;24661;53.566;9.910;2023-05-19T05:33:10;8.33;;;3.50;;
38901;SDS011;24661;53.566;9.910;2023-05-19T05:35:35;11.20;;;4.50;;
38901;SDS011;24661;53.566;9.910;2023-05-19T05:38:01;7.17;;;3.30;;
38901;SDS011;24661;53.566;9.910;2023-05-19T05:40:27;10.13;;;3.60;;
38901;SDS011;24661;53.566;9.910;2023-05-19T05:42:53;7.83;;;3.13;;
38901;SDS011;24661;53.566;9.910;2023-05-19T05:45:20;9.13;;;3.33;;
38901;SDS011;24661;53.566;9.910;2023-05-19T05:47:49;10.80;;;2.97;;
38901;SDS011;24661;53.566;9.910;2023-05-19T05:50:15;11.93;;;4.53;;
38901;SDS011;24661;53.566;9.910;2023-05-19T05:52:41;8.70;;;3.63;;
38901;SDS011;24661;53.566;9.910;2023-05-19T05:55:10;5.83;;;2.93;;
38901;SDS011;24661;53.566;9.910;2023-05-19T05:57:36;12.13;;;3.60;;
38901;SDS011;24661;53.566;9.910;2023-05-19T06:00:02;8.73;;;3.73;;
38901;SDS011;24661;53.566;9.910;2023-05-19T06:02:34;11.73;;;3.50;;
38901;SDS011;24661;53.566;9.910;2023-05-19T06:05:00;10.63;;;2.93;;
38901;SDS011;24661;53.566;9.910;2023-05-19T06:07:26;8.50;;;3.37;;
38901;SDS011;24661;53.566;9.910;2023-05-19T06:09:52;8.43;;;2.90;;
38901;SDS011;24661;53.566;9.910;2023-05-19T06:12:17;5.63;;;2.80;;
38901;SDS011;24661;53.566;9.910;2023-05-19T06:14:43;14.40;;;3.30;;
38901;SDS011;24661;53.566;9.910;2023-05-19T06:17:08;6.33;;;3.20;;
38901;SDS011;24661;53.566;9.910;2023-05-19T06:19:34;6.63;;;2.77;;
38901;SDS011;24661;53.566;9.910;2023-05-19T06:22:00;7.20;;;3.17;;
38901;SDS011;24661;53.566;9.910;2023-05-19T06:24:25;7.53;;;3.00;;
38901;SDS011;24661;53.566;9.910;2023-05-19T06:26:51;8.97;;;3.10;;
38901;SDS011;24661;53.566;9.910;2023-05-19T06:29:16;10.37;;;2.97;;
38901;SDS011;24661;53.566;9.910;2023-05-19T06:31:42;10.97;;;3.30;;
38901;SDS011;24661;53.566;9.910;2023-05-19T06:34:07;10.43;;;2.87;;
38901;SDS011;24661;53.566;9.910;2023-05-19T06:36:36;9.90;;;3.20;;
38901;SDS011;24661;53.566;9.910;2023-05-19T06:39:01;14.47;;;3.57;;
38901;SDS011;24661;53.566;9.910;2023-05-19T06:41:27;7.90;;;3.20;;
38901;SDS011;24661;53.566;9.910;2023-05-19T06:43:53;11.00;;;2.77;;
38901;SDS011;24661;53.566;9.910;2023-05-19T06:46:18;6.13;;;2.40;;
38901;SDS011;24661;53.566;9.910;2023-05-19T06:48:44;8.87;;;2.60;;
38901;SDS011;24661;53.566;9.910;2023-05-19T06:51:09;10.23;;;2.90;;
38901;SDS011;24661;53.566;9.910;2023-05-19T06:53:35;11.07;;;2.90;;
38901;SDS011;24661;53.566;9.910;2023-05-19T06:56:01;8.63;;;3.13;;
38901;SDS011;24661;53.566;9.910;2023-05-19T06:58:26;10.30;;;3.03;;
38901;SDS011;24661;53.566;9.910;2023-05-19T07:00:52;9.23;;;2.70;;
38901;SDS011;24661;53.566;9.910;2023-05-19T07:03:17;8.20;;;2.17;;
38901;SDS011;24661;53.566;9.910;2023-05-19T07:05:43;8.07;;;2.30;;
38901;SDS011;24661;53.566;9.910;2023-05-19T07:08:09;9.57;;;2.80;;
38901;SDS011;24661;53.566;9.910;2023-05-19T07:10:34;10.23;;;2.90;;
38901;SDS011;24661;53.566;9.910;2023-05-19T07:13:00;6.60;;;2.13;;
38901;SDS011;24661;53.566;9.910;2023-05-19T07:15:25;6.93;;;2.40;;
38901;SDS011;24661;53.566;9.910;2023-05-19T07:17:51;7.90;;;2.67;;
38901;SDS011;24661;53.566;9.910;2023-05-19T07:20:16;9.17;;;2.67;;
38901;SDS011;24661;53.566;9.910;2023-05-19T07:22:42;9.97;;;2.33;;
38901;SDS011;24661;53.566;9.910;2023-05-19T07:25:08;6.43;;;2.10;;
38901;SDS011;24661;53.566;9.910;2023-05-19T07:27:33;4.73;;;1.80;;
38901;SDS011;24661;53.566;9.910;2023-05-19T07:29:59;9.37;;;2.60;;
38901;SDS011;24661;53.566;9.910;2023-05-19T07:32:25;9.40;;;2.40;;
38901;SDS011;24661;53.566;9.910;2023-05-19T07:34:51;6.10;;;2.37;;
38901;SDS011;24661;53.566;9.910;2023-05-19T07:37:16;15.60;;;2.60;;
38901;SDS011;24661;53.566;9.910;2023-05-19T07:39:42;8.77;;;2.70;;
38901;SDS011;24661;53.566;9.910;2023-05-19T07:42:07;6.73;;;2.07;;
38901;SDS011;24661;53.566;9.910;2023-05-19T07:44:33;7.27;;;2.77;;
38901;SDS011;24661;53.566;9.910;2023-05-19T07:46:59;7.77;;;2.83;;
38901;SDS011;24661;53.566;9.910;2023-05-19T07:49:25;8.60;;;2.50;;
38901;SDS011;24661;53.566;9.910;2023-05-19T07:51:51;3.97;;;1.83;;
38901;SDS011;24661;53.566;9.910;2023-05-19T07:54:17;8.03;;;3.10;;
38901;SDS011;24661;53.566;9.910;2023-05-19T07:56:43;11.97;;;2.47;;
38901;SDS011;24661;53.566;9.910;2023-05-19T07:59:09;6.43;;;1.93;;
38901;SDS011;24661;53.566;9.910;2023-05-19T08:01:34;6.47;;;2.20;;
38901;SDS011;24661;53.566;9.910;2023-05-19T08:04:00;5.87;;;2.23;;
38901;SDS011;24661;53.566;9.910;2023-05-19T08:06:26;9.40;;;2.43;;
38901;SDS011;24661;53.566;9.910;2023-05-19T08:08:53;6.93;;;1.97;;
38901;SDS011;24661;53.566;9.910;2023-05-19T08:11:19;7.87;;;2.10;;
38901;SDS011;24661;53.566;9.910;2023-05-19T08:13:45;6.40;;;1.77;;
38901;SDS011;24661;53.566;9.910;2023-05-19T08:16:12;5.37;;;2.20;;
38901;SDS011;24661;53.566;9.910;2023-05-19T08:18:38;9.40;;;2.57;;
38901;SDS011;24661;53.566;9.910;2023-05-19T08:21:04;10.43;;;2.37;;
38901;SDS011;24661;53.566;9.910;2023-05-19T08:23:30;8.47;;;2.40;;
38901;SDS011;24661;53.566;9.910;2023-05-19T08:25:56;7.73;;;2.27;;
38901;SDS011;24661;53.566;9.910;2023-05-19T08:28:21;12.90;;;2.40;;
38901;SDS011;24661;53.566;9.910;2023-05-19T08:30:48;6.37;;;2.30;;
38901;SDS011;24661;53.566;9.910;2023-05-19T08:33:14;8.77;;;3.10;;
38901;SDS011;24661;53.566;9.910;2023-05-19T08:35:40;8.47;;;2.57;;
38901;SDS011;24661;53.566;9.910;2023-05-19T08:38:06;7.73;;;3.13;;
38901;SDS011;24661;53.566;9.910;2023-05-19T08:40:32;8.47;;;2.30;;
38901;SDS011;24661;53.566;9.910;2023-05-19T08:43:01;4.83;;;1.90;;
38901;SDS011;24661;53.566;9.910;2023-05-19T08:45:27;9.70;;;2.17;;
38901;SDS011;24661;53.566;9.910;2023-05-19T08:47:53;10.00;;;2.47;;
38901;SDS011;24661;53.566;9.910;2023-05-19T08:50:22;8.90;;;2.13;;
38901;SDS011;24661;53.566;9.910;2023-05-19T08:58:22;11.23;;;2.30;;
38901;SDS011;24661;53.566;9.910;2023-05-19T09:00:48;5.17;;;1.77;;
38901;SDS011;24661;53.566;9.910;2023-05-19T09:03:15;9.43;;;2.20;;
38901;SDS011;24661;53.566;9.910;2023-05-19T09:05:42;9.80;;;2.50;;
38901;SDS011;24661;53.566;9.910;2023-05-19T09:08:08;10.27;;;3.03;;
38901;SDS011;24661;53.566;9.910;2023-05-19T09:10:34;6.67;;;2.23;;
38901;SDS011;24661;53.566;9.910;2023-05-19T09:12:59;14.90;;;2.37;;
38901;SDS011;24661;53.566;9.910;2023-05-19T09:15:26;7.60;;;2.23;;
38901;SDS011;24661;53.566;9.910;2023-05-19T09:18:13;10.87;;;2.43;;
38901;SDS011;24661;53.566;9.910;2023-05-19T09:20:39;10.20;;;2.43;;
38901;SDS011;24661;53.566;9.910;2023-05-19T09:23:06;7.27;;;2.60;;
38901;SDS011;24661;53.566;9.910;2023-05-19T09:25:32;8.33;;;2.10;;
38901;SDS011;24661;53.566;9.910;2023-05-19T09:27:58;5.33;;;1.93;;
38901;SDS011;24661;53.566;9.910;2023-05-19T09:30:24;7.00;;;2.30;;
38901;SDS011;24661;53.566;9.910;2023-05-19T09:32:50;10.90;;;3.20;;
38901;SDS011;24661;53.566;9.910;2023-05-19T09:35:16;8.00;;;2.10;;
38901;SDS011;24661;53.566;9.910;2023-05-19T09:37:44;10.40;;;2.70;;
38901;SDS011;24661;53.566;9.910;2023-05-19T09:40:12;6.17;;;2.00;;
38901;SDS011;24661;53.566;9.910;2023-05-19T09:42:39;6.73;;;2.60;;
38901;SDS011;24661;53.566;9.910;2023-05-19T09:45:06;6.90;;;2.40;;
38901;SDS011;24661;53.566;9.910;2023-05-19T09:47:36;7.87;;;2.13;;
38901;SDS011;24661;53.566;9.910;2023-05-19T09:50:06;8.37;;;2.10;;
38901;SDS011;24661;53.566;9.910;2023-05-19T09:52:36;5.40;;;1.83;;
38901;SDS011;24661;53.566;9.910;2023-05-19T09:55:03;10.13;;;2.40;;
38901;SDS011;24661;53.566;9.910;2023-05-19T09:57:33;8.87;;;2.33;;
38901;SDS011;24661;53.566;9.910;2023-05-19T10:00:11;3.93;;;1.70;;
38901;SDS011;24661;53.566;9.910;2023-05-19T10:02:42;6.57;;;2.40;;
38901;SDS011;24661;53.566;9.910;2023-05-19T10:05:12;5.73;;;2.13;;
38901;SDS011;24661;53.566;9.910;2023-05-19T10:07:44;9.43;;;2.60;;
38901;SDS011;24661;53.566;9.910;2023-05-19T10:10:16;9.07;;;2.07;;
38901;SDS011;24661;53.566;9.910;2023-05-19T10:12:45;5.87;;;1.90;;
38901;SDS011;24661;53.566;9.910;2023-05-19T10:15:12;6.53;;;1.87;;
38901;SDS011;24661;53.566;9.910;2023-05-19T10:17:41;8.43;;;1.63;;
38901;SDS011;24661;53.566;9.910;2023-05-19T10:20:08;8.10;;;1.70;;
38901;SDS011;24661;53.566;9.910;2023-05-19T10:22:35;9.97;;;2.33;;
38901;SDS011;24661;53.566;9.910;2023-05-19T10:25:02;8.03;;;2.10;;
38901;SDS011;24661;53.566;9.910;2023-05-19T10:27:29;9.60;;;2.20;;
38901;SDS011;24661;53.566;9.910;2023-05-19T10:29:57;8.43;;;1.90;;
38901;SDS011;24661;53.566;9.910;2023-05-19T10:32:29;7.47;;;2.30;;
38901;SDS011;24661;53.566;9.910;2023-05-19T10:44:04;5.47;;;1.77;;
38901;SDS011;24661;53.566;9.910;2023-05-19T10:46:52;5.77;;;2.10;;
38901;SDS011;24661;53.566;9.910;2023-05-19T10:49:20;8.40;;;1.80;;
38901;SDS011;24661;53.566;9.910;2023-05-19T10:51:46;7.13;;;2.00;;
38901;SDS011;24661;53.566;9.910;2023-05-19T10:54:12;6.00;;;2.00;;
38901;SDS011;24661;53.566;9.910;2023-05-19T10:56:41;5.13;;;1.97;;
38901;SDS011;24661;53.566;9.910;2023-05-19T10:59:29;7.07;;;1.83;;
38901;SDS011;24661;53.566;9.910;2023-05-19T11:01:56;7.80;;;1.63;;
38901;SDS011;24661;53.566;9.910;2023-05-19T11:04:37;10.03;;;2.43;;
38901;SDS011;24661;53.566;9.910;2023-05-19T11:07:04;5.70;;;1.67;;
38901;SDS011;24661;53.566;9.910;2023-05-19T11:09:38;9.47;;;2.97;;
38901;SDS011;24661;53.566;9.910;2023-05-19T11:12:05;6.40;;;2.40;;
38901;SDS011;24661;53.566;9.910;2023-05-19T11:14:32;3.80;;;1.50;;
38901;SDS011;24661;53.566;9.910;2023-05-19T11:16:58;4.73;;;1.73;;
38901;SDS011;24661;53.566;9.910;2023-05-19T11:19:25;10.30;;;2.20;;
38901;SDS011;24661;53.566;9.910;2023-05-19T11:21:56;5.83;;;1.97;;
38901;SDS011;24661;53.566;9.910;2023-05-19T11:27:22;8.00;;;2.10;;
38901;SDS011;24661;53.566;9.910;2023-05-19T11:29:53;4.63;;;1.83;;
38901;SDS011;24661;53.566;9.910;2023-05-19T11:32:21;8.60;;;1.97;;
38901;SDS011;24661;53.566;9.910;2023-05-19T11:34:51;6.17;;;1.97;;
38901;SDS011;24661;53.566;9.910;2023-05-19T11:37:17;15.13;;;3.20;;
38901;SDS011;24661;53.566;9.910;2023-05-19T11:39:44;11.73;;;2.20;;
38901;SDS011;24661;53.566;9.910;2023-05-19T11:42:11;5.13;;;1.77;;
38901;SDS011;24661;53.566;9.910;2023-05-19T11:44:37;5.90;;;1.93;;
38901;SDS011;24661;53.566;9.910;2023-05-19T11:47:03;4.80;;;1.60;;
38901;SDS011;24661;53.566;9.910;2023-05-19T11:49:29;4.73;;;2.33;;
38901;SDS011;24661;53.566;9.910;2023-05-19T11:51:55;7.83;;;1.60;;
38901;SDS011;24661;53.566;9.910;2023-05-19T11:54:27;5.87;;;1.60;;
38901;SDS011;24661;53.566;9.910;2023-05-19T11:56:55;4.53;;;1.63;;
38901;SDS011;24661;53.566;9.910;2023-05-19T11:59:31;5.87;;;1.80;;
38901;SDS011;24661;53.566;9.910;2023-05-19T12:02:01;3.50;;;1.27;;
38901;SDS011;24661;53.566;9.910;2023-05-19T12:04:46;4.73;;;2.07;;
38901;SDS011;24661;53.566;9.910;2023-05-19T12:07:14;6.27;;;2.20;;
38901;SDS011;24661;53.566;9.910;2023-05-19T12:09:44;2.93;;;1.63;;
38901;SDS011;24661;53.566;9.910;2023-05-19T12:12:18;5.37;;;1.73;;
38901;SDS011;24661;53.566;9.910;2023-05-19T12:14:45;7.07;;;1.80;;
38901;SDS011;24661;53.566;9.910;2023-05-19T12:17:12;2.77;;;1.60;;
38901;SDS011;24661;53.566;9.910;2023-05-19T12:19:39;1.70;;;1.13;;
38901;SDS011;24661;53.566;9.910;2023-05-19T12:22:08;7.83;;;2.43;;
38901;SDS011;24661;53.566;9.910;2023-05-19T12:24:34;8.70;;;2.67;;
38901;SDS011;24661;53.566;9.910;2023-05-19T12:27:19;10.60;;;2.00;;
38901;SDS011;24661;53.566;9.910;2023-05-19T12:29:48;4.27;;;1.70;;
38901;SDS011;24661;53.566;9.910;2023-05-19T12:32:18;3.83;;;2.37;;
38901;SDS011;24661;53.566;9.910;2023-05-19T12:34:51;6.67;;;2.60;;
38901;SDS011;24661;53.566;9.910;2023-05-19T12:37:17;5.87;;;2.70;;
38901;SDS011;24661;53.566;9.910;2023-05-19T12:39:43;6.67;;;1.57;;
38901;SDS011;24661;53.566;9.910;2023-05-19T12:42:10;5.40;;;1.57;;
38901;SDS011;24661;53.566;9.910;2023-05-19T12:44:46;6.07;;;1.97;;
38901;SDS011;24661;53.566;9.910;2023-05-19T12:47:16;7.33;;;2.13;;
38901;SDS011;24661;53.566;9.910;2023-05-19T12:49:59;10.10;;;2.10;;
38901;SDS011;24661;53.566;9.910;2023-05-19T12:52:26;2.83;;;1.40;;
38901;SDS011;24661;53.566;9.910;2023-05-19T12:55:05;10.40;;;2.50;;
38901;SDS011;24661;53.566;9.910;2023-05-19T12:57:35;6.00;;;2.27;;
38901;SDS011;24661;53.566;9.910;2023-05-19T13:00:03;7.20;;;2.20;;
38901;SDS011;24661;53.566;9.910;2023-05-19T13:02:53;4.60;;;1.90;;
38901;SDS011;24661;53.566;9.910;2023-05-19T13:05:29;9.80;;;1.83;;
38901;SDS011;24661;53.566;9.910;2023-05-19T13:08:00;3.53;;;1.57;;
38901;SDS011;24661;53.566;9.910;2023-05-19T13:10:28;4.80;;;2.07;;
38901;SDS011;24661;53.566;9.910;2023-05-19T13:12:55;6.00;;;1.87;;
38901;SDS011;24661;53.566;9.910;2023-05-19T13:15:26;4.43;;;1.50;;
38901;SDS011;24661;53.566;9.910;2023-05-19T13:17:55;4.43;;;1.80;;
38901;SDS011;24661;53.566;9.910;2023-05-19T13:20:21;10.73;;;2.13;;
38901;SDS011;24661;53.566;9.910;2023-05-19T13:22:47;2.30;;;1.30;;
38901;SDS011;24661;53.566;9.910;2023-05-19T13:25:14;2.50;;;1.77;;
38901;SDS011;24661;53.566;9.910;2023-05-19T13:27:40;3.87;;;1.40;;
38901;SDS011;24661;53.566;9.910;2023-05-19T13:30:05;4.73;;;2.07;;
38901;SDS011;24661;53.566;9.910;2023-05-19T13:32:31;4.17;;;1.73;;
38901;SDS011;24661;53.566;9.910;2023-05-19T13:34:58;4.93;;;1.83;;
38901;SDS011;24661;53.566;9.910;2023-05-19T13:37:25;5.37;;;1.30;;
38901;SDS011;24661;53.566;9.910;2023-05-19T13:39:50;3.73;;;1.40;;
38901;SDS011;24661;53.566;9.910;2023-05-19T13:42:16;5.17;;;1.97;;
38901;SDS011;24661;53.566;9.910;2023-05-19T13:44:43;4.50;;;2.20;;
38901;SDS011;24661;53.566;9.910;2023-05-19T13:47:09;3.27;;;1.67;;
38901;SDS011;24661;53.566;9.910;2023-05-19T13:49:35;6.73;;;1.83;;
38901;SDS011;24661;53.566;9.910;2023-05-19T13:52:01;3.73;;;1.83;;
38901;SDS011;24661;53.566;9.910;2023-05-19T13:54:26;5.07;;;1.50;;
38901;SDS011;24661;53.566;9.910;2023-05-19T13:56:52;3.03;;;1.77;;
38901;SDS011;24661;53.566;9.910;2023-05-19T13:59:18;3.90;;;1.60;;
38901;SDS011;24661;53.566;9.910;2023-05-19T14:01:45;2.43;;;1.50;;
38901;SDS011;24661;53.566;9.910;2023-05-19T14:04:12;3.43;;;1.73;;
38901;SDS011;24661;53.566;9.910;2023-05-19T14:06:37;2.87;;;1.50;;
38901;SDS011;24661;53.566;9.910;2023-05-19T14:09:04;5.73;;;2.23;;
38901;SDS011;24661;53.566;9.910;2023-05-19T14:11:30;3.50;;;1.53;;
38901;SDS011;24661;53.566;9.910;2023-05-19T14:13:56;7.23;;;3.73;;
38901;SDS011;24661;53.566;9.910;2023-05-19T14:16:22;6.57;;;1.90;;
38901;SDS011;24661;53.566;9.910;2023-05-19T14:18:50;5.77;;;2.00;;
38901;SDS011;24661;53.566;9.910;2023-05-19T14:21:15;3.70;;;1.60;;
38901;SDS011;24661;53.566;9.910;2023-05-19T14:23:41;5.60;;;2.37;;
38901;SDS011;24661;53.566;9.910;2023-05-19T14:26:07;7.77;;;1.63;;
38901;SDS011;24661;53.566;9.910;2023-05-19T14:28:32;4.87;;;1.80;;
38901;SDS011;24661;53.566;9.910;2023-05-19T14:30:58;6.50;;;1.70;;
38901;SDS011;24661;53.566;9.910;2023-05-19T14:33:24;4.57;;;1.70;;
38901;SDS011;24661;53.566;9.910;2023-05-19T14:35:49;10.20;;;5.83;;
38901;SDS011;24661;53.566;9.910;2023-05-19T14:38:15;6.93;;;2.57;;
38901;SDS011;24661;53.566;9.910;2023-05-19T14:40:40;3.87;;;1.80;;
38901;SDS011;24661;53.566;9.910;2023-05-19T14:43:06;6.93;;;1.43;;
38901;SDS011;24661;53.566;9.910;2023-05-19T14:45:32;3.73;;;1.50;;
38901;SDS011;24661;53.566;9.910;2023-05-19T14:47:59;5.27;;;1.63;;
38901;SDS011;24661;53.566;9.910;2023-05-19T14:50:24;9.47;;;1.90;;
38901;SDS011;24661;53.566;9.910;2023-05-19T14:52:51;3.43;;;1.40;;
38901;SDS011;24661;53.566;9.910;2023-05-19T14:55:17;4.63;;;1.70;;
38901;SDS011;24661;53.566;9.910;2023-05-19T14:57:42;3.13;;;1.67;;
38901;SDS011;24661;53.566;9.910;2023-05-19T15:00:08;4.67;;;1.73;;
38901;SDS011;24661;53.566;9.910;2023-05-19T15:02:34;5.20;;;1.93;;
38901;SDS011;24661;53.566;9.910;2023-05-19T15:05:00;4.13;;;1.90;;
38901;SDS011;24661;53.566;9.910;2023-05-19T15:07:26;6.73;;;2.07;;
38901;SDS011;24661;53.566;9.910;2023-05-19T15:09:52;3.53;;;1.20;;
38901;SDS011;24661;53.566;9.910;2023-05-19T15:12:17;5.27;;;1.50;;
38901;SDS011;24661;53.566;9.910;2023-05-19T15:14:43;4.40;;;1.97;;